Date,TemperatureHighF,TemperatureAvgF,TemperatureLowF,DewpointHighF,DewpointAvgF,DewpointLowF,HumidityHigh,HumidityAvg,HumidityLow,PressureMaxIn,PressureMinIn,WindSpeedMaxMPH,WindSpeedAvgMPH,GustSpeedMaxMPH,PrecipitationSumIn
2013-3-1,57.0,52.4,49.9,52.2,49.8,48.4,97,91,81,30.33,30.25,4,2,12,0.13
2013-3-2,57.7,49.7,38.8,50.0,45.5,37.2,94,86,72,30.25,30.05,4,1,13,0.15
2013-3-3,51.0,42.5,36.2,39.9,36.3,33.6,96,80,52,30.28,30.18,1,0,11,0.01
2013-3-4,47.8,46.1,44.6,35.0,28.9,26.6,61,51,48,29.97,29.90,2,1,7,0.00
2013-3-5,51.4,45.4,42.4,42.8,36.4,26.1,91,72,48,29.90,29.70,2,0,8,0.00
2013-3-6,44.0,42.5,40.9,41.9,40.6,39.5,97,93,88,29.87,29.55,5,1,17,0.60
2013-3-7,52.6,45.7,41.8,45.9,42.1,40.0,97,88,65,30.06,29.87,2,0,6,0.15
2013-3-8,50.8,43.8,38.8,41.7,38.7,35.8,96,83,62,30.22,30.05,5,0,13,0.00
2013-3-9,53.7,44.0,35.3,43.0,38.4,34.1,97,82,58,30.47,30.22,2,0,4,0.00
2013-3-10,51.2,44.5,40.4,43.7,40.7,37.1,93,87,70,30.47,30.41,0,0,4,0.02
2013-3-11,55.4,47.7,42.8,46.3,43.2,40.9,95,85,62,30.42,30.13,1,0,4,0.02
2013-3-12,55.0,51.0,47.8,50.7,48.4,46.2,97,91,76,30.13,30.04,4,2,14,0.06
2013-3-13,51.7,50.5,49.4,50.3,48.8,47.5,96,94,91,30.18,30.07,5,2,13,0.12
2013-3-14,53.8,50.3,48.1,49.2,47.2,45.3,97,89,74,30.12,30.01,2,1,10,0.02
2013-3-15,60.0,52.0,48.0,51.9,48.1,45.5,97,87,70,30.18,30.11,3,1,8,0.00
2013-3-16,52.6,47.4,39.3,47.0,42.2,35.7,90,83,66,30.11,29.85,5,2,15,0.02
2013-3-17,52.7,42.8,38.5,39.2,36.3,33.6,90,79,53,30.17,29.96,4,1,9,0.01
2013-3-18,55.7,45.4,39.9,42.1,37.1,34.0,93,74,46,30.22,30.08,5,1,16,0.01
2013-3-19,57.5,43.6,37.7,43.9,37.2,32.7,96,80,40,30.21,29.57,3,0,8,0.41
2013-3-20,52.2,46.6,39.5,48.9,41.9,33.1,97,84,67,29.99,29.35,6,3,17,0.58
2013-3-21,52.8,41.6,36.5,40.3,35.6,33.5,93,80,53,30.20,30.00,2,0,9,0.03
2013-3-22,50.5,40.3,35.7,37.5,32.4,27.8,93,75,44,30.36,30.19,2,0,9,0.01
2013-3-23,52.3,42.5,35.6,34.3,30.4,25.4,84,64,36,30.38,30.28,1,0,4,0.00
2013-3-24,55.8,44.2,34.4,35.8,32.2,28.2,88,65,38,30.28,30.10,1,0,4,0.00
2013-3-25,59.2,50.0,39.5,38.0,30.8,27.1,66,49,31,30.11,29.91,4,1,10,0.00
2013-3-26,62.5,52.0,46.1,42.6,39.1,35.8,80,62,39,30.00,29.94,2,0,8,0.00
2013-3-27,57.3,50.1,46.1,48.9,43.0,37.8,91,77,58,29.97,29.92,2,0,7,0.02
2013-3-28,63.6,52.6,45.5,51.5,46.4,43.1,97,81,53,30.12,29.97,1,0,4,0.06
2013-3-29,64.3,53.5,46.5,48.0,45.3,43.6,93,75,50,30.22,30.12,3,0,10,0.00
2013-3-30,61.3,52.0,43.5,48.1,44.6,42.2,96,77,54,30.24,30.05,4,1,15,0.00
2013-3-31,65.6,56.3,46.9,46.7,42.9,39.7,81,62,44,30.05,29.89,5,0,10,0.00